Time;durP1;ratioP1;P1;durP2;ratioP2;P2;SDS_P1;SDS_P2;PMS_P1;PMS_P2;Temp;Humidity;BMP_temperature;BMP_pressure;BME280_temperature;BME280_humidity;BME280_pressure;Samples;Min_cycle;Max_cycle;Signal;HPM_P1;HPM_P2
2022/12/31 00:01:46;;;;;;;14.00;10.40;;;;;;;2.99;100.00;100737.28;5012419;28;20125;-67
2022/12/31 00:04:12;;;;;;;16.87;9.93;;;;;;;2.97;100.00;100747.09;5012774;28;20076;-67
2022/12/31 00:06:37;;;;;;;22.40;10.83;;;;;;;2.93;100.00;100745.63;5012557;28;20458;-67
2022/12/31 00:09:05;;;;;;;14.07;10.10;;;;;;;2.95;100.00;100754.25;5012641;28;20030;-68
2022/12/31 00:11:32;;;;;;;18.88;11.35;;;;;;;2.90;100.00;100762.47;4995020;28;20061;-70
2022/12/31 00:13:57;;;;;;;20.87;11.73;;;;;;;2.95;100.00;100770.03;5011456;28;20056;-67
2022/12/31 00:16:31;;;;;;;18.83;11.73;;;;;;;2.91;100.00;100747.53;5012306;28;20265;-66
2022/12/31 00:18:59;;;;;;;15.20;9.70;;;;;;;2.83;100.00;100748.09;5010733;28;20041;-66
2022/12/31 00:21:26;;;;;;;17.23;10.27;;;;;;;2.91;100.00;100758.06;5012615;28;20430;-67
2022/12/31 00:23:52;;;;;;;20.80;10.77;;;;;;;2.89;100.00;100754.69;5012605;28;20273;-67
2022/12/31 00:26:20;;;;;;;20.70;10.77;;;;;;;2.93;100.00;100770.16;5012271;28;20261;-70
2022/12/31 00:28:46;;;;;;;15.90;11.02;;;;;;;2.89;100.00;100765.19;5012214;28;20030;-67
2022/12/31 00:31:22;;;;;;;20.27;10.67;;;;;;;2.90;100.00;100766.91;5012280;28;20377;-66
2022/12/31 00:33:49;;;;;;;14.60;9.27;;;;;;;2.89;100.00;100771.31;5012753;28;20570;-67
2022/12/31 00:36:26;;;;;;;20.13;10.13;;;;;;;2.91;100.00;100776.47;5012406;28;20273;-67
2022/12/31 00:38:53;;;;;;;14.67;8.60;;;;;;;2.94;100.00;100789.41;5012394;28;20249;-65
2022/12/31 00:41:20;;;;;;;16.40;9.50;;;;;;;2.97;100.00;100778.66;5011993;28;20658;-68
2022/12/31 00:43:46;;;;;;;16.57;10.53;;;;;;;2.84;100.00;100776.06;5012162;28;20256;-69
2022/12/31 00:46:12;;;;;;;16.37;9.57;;;;;;;2.77;100.00;100778.31;5012866;28;20748;-66
2022/12/31 00:48:38;;;;;;;16.93;9.67;;;;;;;2.75;100.00;100777.59;5013026;28;20112;-68
2022/12/31 00:51:06;;;;;;;14.33;8.63;;;;;;;2.71;100.00;100770.03;5012895;28;20376;-68
2022/12/31 00:53:32;;;;;;;13.40;8.77;;;;;;;2.77;100.00;100775.69;5012425;28;20621;-67
2022/12/31 00:56:09;;;;;;;15.70;9.67;;;;;;;2.80;100.00;100783.34;5012063;28;20041;-68
2022/12/31 00:58:35;;;;;;;11.90;7.63;;;;;;;2.79;100.00;100775.56;5012046;28;20049;-67
2022/12/31 01:01:28;;;;;;;16.23;8.63;;;;;;;2.76;100.00;100776.63;5012265;28;20300;-68
2022/12/31 01:04:02;;;;;;;15.83;8.87;;;;;;;2.74;100.00;100777.69;5008516;28;20752;-69
2022/12/31 01:06:28;;;;;;;11.90;8.00;;;;;;;2.78;100.00;100787.03;5012129;28;20261;-66
2022/12/31 01:08:54;;;;;;;16.90;9.80;;;;;;;2.80;100.00;100778.09;5010720;28;20271;-67
2022/12/31 01:11:23;;;;;;;16.23;8.77;;;;;;;2.88;100.00;100777.50;5014111;28;20036;-67
2022/12/31 01:14:15;;;;;;;16.23;9.23;;;;;;;2.93;100.00;100782.47;5014543;28;20504;-69
2022/12/31 01:16:46;;;;;;;14.37;9.93;;;;;;;2.94;100.00;100784.97;5015800;28;20613;-66
2022/12/31 01:19:16;;;;;;;14.07;9.13;;;;;;;2.99;100.00;100784.63;5015460;28;20284;-67
2022/12/31 01:21:42;;;;;;;18.60;11.47;;;;;;;2.98;100.00;100801.38;5015201;28;20295;-69
2022/12/31 01:24:09;;;;;;;15.10;9.90;;;;;;;2.97;100.00;100797.91;5015324;28;20304;-67
2022/12/31 01:26:35;;;;;;;17.47;10.57;;;;;;;2.92;100.00;100797.41;5014375;28;20261;-67
2022/12/31 01:29:01;;;;;;;16.27;10.00;;;;;;;2.97;100.00;100789.16;5015312;28;20344;-67
2022/12/31 01:31:26;;;;;;;20.40;11.37;;;;;;;2.97;100.00;100794.44;5015232;28;20030;-69
2022/12/31 01:33:53;;;;;;;18.03;10.73;;;;;;;2.93;100.00;100792.97;5015486;28;20064;-70
2022/12/31 01:36:24;;;;;;;17.00;10.37;;;;;;;2.92;100.00;100786.88;5015156;28;20032;-66
2022/12/31 01:38:49;;;;;;;17.83;11.17;;;;;;;2.70;100.00;100761.31;5014009;28;20331;-67
2022/12/31 01:41:18;;;;;;;13.37;9.10;;;;;;;2.96;100.00;100795.38;5014821;28;20723;-67
2022/12/31 01:43:48;;;;;;;16.80;10.38;;;;;;;2.98;100.00;100796.94;5014991;28;20064;-70
2022/12/31 01:46:38;;;;;;;15.73;10.10;;;;;;;2.95;100.00;100791.91;5015664;28;20501;-68
2022/12/31 01:49:10;;;;;;;20.87;9.37;;;;;;;2.94;100.00;100802.56;5030196;28;20366;-68
2022/12/31 01:51:39;;;;;;;16.70;11.10;;;;;;;2.91;100.00;100801.00;5015385;28;20293;-68
2022/12/31 01:54:08;;;;;;;16.60;10.18;;;;;;;2.87;100.00;100801.31;5013557;28;20296;-68
2022/12/31 01:56:35;;;;;;;18.85;9.55;;;;;;;2.77;100.00;100804.59;5014770;28;20117;-67
2022/12/31 01:59:05;;;;;;;19.67;10.23;;;;;;;2.75;100.00;100806.50;5014582;28;20084;-67
2022/12/31 02:01:32;;;;;;;18.53;9.47;;;;;;;2.74;100.00;100812.72;5014628;28;20335;-66
2022/12/31 02:04:03;;;;;;;15.30;9.43;;;;;;;2.75;100.00;100817.03;5014702;28;20319;-68
2022/12/31 02:06:35;;;;;;;17.53;10.67;;;;;;;2.65;100.00;100792.38;5015455;28;20249;-67
2022/12/31 02:09:00;;;;;;;14.67;9.07;;;;;;;2.83;100.00;100807.75;5015102;28;20295;-69
2022/12/31 02:11:36;;;;;;;13.73;7.93;;;;;;;2.84;100.00;100804.16;5014981;28;20252;-68
2022/12/31 02:14:14;;;;;;;17.53;9.37;;;;;;;2.89;100.00;100813.41;5014599;28;20136;-67
2022/12/31 02:16:45;;;;;;;16.33;8.90;;;;;;;2.94;100.00;100813.91;5014428;28;20835;-67
2022/12/31 02:19:14;;;;;;;16.03;8.43;;;;;;;2.96;100.00;100813.81;5013222;28;20399;-67
2022/12/31 02:22:06;;;;;;;16.75;9.57;;;;;;;2.71;100.00;100776.13;5014211;28;20287;-68
2022/12/31 02:24:49;;;;;;;14.63;9.37;;;;;;;2.91;100.00;100808.88;5014406;28;20033;-70
2022/12/31 02:27:21;;;;;;;12.53;7.37;;;;;;;2.90;100.00;100811.63;5014519;28;20347;-67
2022/12/31 02:30:16;;;;;;;10.53;6.27;;;;;;;2.98;100.00;100814.53;5014201;28;20609;-68
2022/12/31 02:32:44;;;;;;;11.87;7.13;;;;;;;2.97;100.00;100815.47;5014121;28;20272;-67
2022/12/31 02:35:51;;;;;;;14.88;7.20;;;;;;;2.94;100.00;100811.28;5014287;28;20283;-69
2022/12/31 02:38:30;;;;;;;9.90;6.50;;;;;;;2.94;100.00;100810.44;5013895;28;20026;-67
2022/12/31 02:40:56;;;;;;;10.57;6.53;;;;;;;2.98;100.00;100822.41;5012792;28;20299;-68
2022/12/31 02:43:22;;;;;;;9.37;6.13;;;;;;;2.95;100.00;100822.66;5014478;28;20469;-66
2022/12/31 02:46:15;;;;;;;12.70;5.63;;;;;;;2.89;100.00;100815.19;5012963;28;20271;-68
2022/12/31 02:49:10;;;;;;;8.40;6.57;;;;;;;2.97;100.00;100815.47;5013954;28;20417;-68
2022/12/31 02:51:45;;;;;;;13.13;6.90;;;;;;;2.99;100.00;100821.47;5013553;28;20372;-68
2022/12/31 02:54:32;;;;;;;9.83;6.10;;;;;;;2.96;100.00;100813.81;5013998;28;20293;-68
2022/12/31 02:57:03;;;;;;;12.83;7.47;;;;;;;3.01;100.00;100822.19;5013868;28;20267;-68
2022/12/31 03:02:40;;;;;;;10.53;5.90;;;;;;;3.05;100.00;100828.91;5013726;28;20296;-70
2022/12/31 03:05:07;;;;;;;9.70;6.20;;;;;;;2.94;100.00;100815.72;5013697;28;20759;-68
2022/12/31 03:07:32;;;;;;;8.23;5.40;;;;;;;3.04;100.00;100832.50;5013651;28;20331;-68
2022/12/31 03:10:00;;;;;;;13.40;8.03;;;;;;;3.01;100.00;100827.44;5013463;28;20308;-70
2022/12/31 03:12:47;;;;;;;9.80;8.50;;;;;;;3.00;100.00;100831.03;5012486;28;20045;-68
2022/12/31 03:15:18;;;;;;;11.13;6.33;;;;;;;2.95;100.00;100830.53;5013765;28;20287;-68
2022/12/31 03:17:53;;;;;;;9.23;5.47;;;;;;;3.01;100.00;100832.72;5013345;28;20768;-69
2022/12/31 03:23:08;;;;;;;11.77;5.80;;;;;;;3.00;100.00;100821.34;5013522;28;20271;-67
2022/12/31 03:25:34;;;;;;;12.40;6.63;;;;;;;3.03;100.00;100833.44;5013507;28;20291;-69
2022/12/31 03:28:02;;;;;;;14.77;6.50;;;;;;;3.00;100.00;100828.41;5013494;28;20040;-68
2022/12/31 03:30:29;;;;;;;10.10;6.35;;;;;;;2.97;100.00;100826.00;5013556;28;20292;-68
2022/12/31 03:32:55;;;;;;;10.87;5.43;;;;;;;2.99;100.00;100830.19;5013788;28;20153;-70
2022/12/31 03:35:21;;;;;;;9.83;5.30;;;;;;;2.98;100.00;100825.06;5014496;28;20694;-68
2022/12/31 03:37:49;;;;;;;11.27;6.07;;;;;;;3.00;100.00;100820.50;5012202;28;20377;-68
2022/12/31 03:40:16;;;;;;;11.30;6.17;;;;;;;2.94;100.00;100816.53;5011875;28;20876;-67
2022/12/31 03:42:41;;;;;;;10.43;5.90;;;;;;;2.85;100.00;100814.56;5012945;28;20339;-68
2022/12/31 03:45:08;;;;;;;9.53;5.80;;;;;;;2.82;100.00;100806.06;5011773;28;20272;-67
2022/12/31 03:47:33;;;;;;;11.90;6.67;;;;;;;2.72;100.00;100812.00;5012962;28;20517;-69
2022/12/31 03:49:59;;;;;;;11.17;5.40;;;;;;;2.60;100.00;100806.78;5013134;28;20315;-69
2022/12/31 03:52:24;;;;;;;8.67;5.93;;;;;;;2.52;100.00;100815.22;5013165;28;20026;-69
2022/12/31 03:54:50;;;;;;;9.47;5.07;;;;;;;2.39;100.00;100804.75;5011592;28;20037;-69
2022/12/31 03:57:15;;;;;;;13.07;6.33;;;;;;;2.24;100.00;100808.44;5012841;28;20045;-68
2022/12/31 03:59:41;;;;;;;10.37;5.73;;;;;;;2.10;100.00;100803.34;5012666;28;20030;-70
2022/12/31 04:02:06;;;;;;;9.80;6.47;;;;;;;1.96;100.00;100793.78;5011184;28;20034;-70
2022/12/31 04:04:32;;;;;;;10.03;6.00;;;;;;;2.06;100.00;100807.97;5012747;28;20108;-69
2022/12/31 04:06:58;;;;;;;11.83;6.60;;;;;;;2.11;100.00;100794.50;5011501;28;20040;-69
2022/12/31 04:09:23;;;;;;;9.23;5.87;;;;;;;2.12;100.00;100804.91;5012679;28;20083;-69
2022/12/31 04:11:49;;;;;;;9.40;5.83;;;;;;;2.08;100.00;100805.22;5012482;28;20411;-68
2022/12/31 04:14:16;;;;;;;8.90;5.77;;;;;;;2.06;100.00;100818.47;5027181;28;20045;-68
2022/12/31 04:16:44;;;;;;;7.22;5.90;;;;;;;2.06;100.00;100813.22;5032465;28;20051;-68
2022/12/31 04:19:10;;;;;;;8.97;6.30;;;;;;;2.06;100.00;100807.97;5031878;28;20068;-66
2022/12/31 04:21:35;;;;;;;6.90;4.87;;;;;;;2.16;100.00;100809.00;5033295;28;20287;-69
2022/12/31 04:24:01;;;;;;;10.63;5.83;;;;;;;2.24;100.00;100810.22;5031852;28;20260;-69
2022/12/31 04:26:27;;;;;;;6.20;4.80;;;;;;;2.26;100.00;100810.97;5032077;28;20036;-67
2022/12/31 04:28:52;;;;;;;6.70;4.87;;;;;;;2.36;100.00;100819.91;5014646;28;20034;-67
2022/12/31 04:31:18;;;;;;;6.00;4.97;;;;;;;2.44;100.00;100822.81;5031971;28;20423;-70
2022/12/31 04:33:43;;;;;;;7.83;5.70;;;;;;;2.49;100.00;100829.41;5031894;28;20039;-69
2022/12/31 04:36:09;;;;;;;5.13;3.73;;;;;;;2.54;100.00;100829.09;5030820;28;20518;-67
2022/12/31 04:38:34;;;;;;;7.43;4.00;;;;;;;2.32;100.00;100779.03;5032112;28;20483;-66
2022/12/31 04:41:15;;;;;;;5.30;3.87;;;;;;;2.62;100.00;100815.41;5031873;28;20029;-68
2022/12/31 04:43:42;;;;;;;3.77;2.83;;;;;;;2.63;100.00;100806.56;5031797;28;20451;-68
2022/12/31 04:46:08;;;;;;;3.17;2.87;;;;;;;2.59;100.00;100808.56;5034379;28;20263;-67
2022/12/31 04:48:34;;;;;;;3.77;2.90;;;;;;;2.54;100.00;100807.22;5036140;28;20252;-68
2022/12/31 04:50:59;;;;;;;5.00;2.73;;;;;;;2.42;100.00;100809.78;5018166;28;20112;-68
2022/12/31 04:53:25;;;;;;;3.27;2.97;;;;;;;2.38;100.00;100803.06;5035798;28;20348;-68
2022/12/31 04:55:51;;;;;;;4.43;3.13;;;;;;;2.32;100.00;100802.66;5035814;28;20025;-68
2022/12/31 04:58:17;;;;;;;3.27;2.87;;;;;;;2.27;100.00;100802.97;5035714;28;20036;-67
2022/12/31 05:00:44;;;;;;;7.57;3.70;;;;;;;2.17;100.00;100794.91;5035703;28;20744;-69
2022/12/31 05:03:11;;;;;;;4.50;3.47;;;;;;;2.07;100.00;100778.13;5035796;28;20256;-69
2022/12/31 05:05:38;;;;;;;4.53;3.57;;;;;;;1.99;100.00;100780.44;5035588;28;20254;-66
2022/12/31 05:08:04;;;;;;;6.33;3.90;;;;;;;1.91;100.00;100781.91;5035759;28;20268;-67
2022/12/31 05:10:29;;;;;;;3.53;2.93;;;;;;;1.82;100.00;100768.47;5034858;28;20260;-68
2022/12/31 05:13:00;;;;;;;3.20;2.90;;;;;;;1.79;100.00;100773.94;5035241;28;20048;-69
2022/12/31 05:15:26;;;;;;;4.70;3.33;;;;;;;1.75;100.00;100771.66;5035563;28;20103;-68
2022/12/31 05:17:51;;;;;;;5.17;3.63;;;;;;;1.81;100.00;100776.47;5035557;28;20264;-69
2022/12/31 05:20:17;;;;;;;6.50;4.60;;;;;;;1.84;100.00;100768.38;5035241;28;20124;-67
2022/12/31 05:22:42;;;;;;;5.60;3.20;;;;;;;1.95;100.00;100772.88;5035016;28;20041;-69
2022/12/31 05:25:08;;;;;;;7.43;3.77;;;;;;;2.05;100.00;100764.25;5035309;28;20041;-65
2022/12/31 05:27:34;;;;;;;5.10;3.20;;;;;;;2.14;100.00;100768.00;5035012;28;20422;-68
2022/12/31 05:29:59;;;;;;;6.23;3.43;;;;;;;2.18;100.00;100766.84;5035322;28;20069;-69
2022/12/31 05:32:25;;;;;;;5.23;3.67;;;;;;;2.26;100.00;100771.53;5017591;28;20032;-66
2022/12/31 05:34:52;;;;;;;6.73;3.60;;;;;;;2.21;100.00;100750.03;5017378;28;20492;-68
2022/12/31 05:37:17;;;;;;;4.30;3.27;;;;;;;2.29;100.00;100768.69;5035762;28;20466;-68
2022/12/31 05:39:43;;;;;;;5.80;3.37;;;;;;;2.31;100.00;100774.69;5035085;28;20260;-67
2022/12/31 05:42:08;;;;;;;6.87;3.50;;;;;;;2.33;100.00;100770.19;5034666;28;20025;-67
2022/12/31 05:44:34;;;;;;;4.20;3.50;;;;;;;2.38;100.00;100773.31;5017376;28;20033;-68
2022/12/31 05:46:59;;;;;;;4.67;3.63;;;;;;;2.34;100.00;100762.19;5017165;28;20116;-69
2022/12/31 05:49:25;;;;;;;4.90;3.80;;;;;;;2.34;100.00;100759.56;5034854;28;20358;-67
2022/12/31 05:51:50;;;;;;;5.60;3.90;;;;;;;2.39;100.00;100769.75;5034341;28;20156;-68
2022/12/31 05:54:16;;;;;;;4.53;2.83;;;;;;;2.42;100.00;100764.25;5034368;28;20033;-68
2022/12/31 05:56:41;;;;;;;4.63;3.63;;;;;;;2.35;100.00;100753.34;5033762;28;20108;-68
2022/12/31 05:59:07;;;;;;;5.20;3.60;;;;;;;2.48;100.00;100763.81;5016961;28;20021;-70
2022/12/31 06:01:32;;;;;;;3.57;2.60;;;;;;;2.46;100.00;100768.34;5034396;28;20116;-68
2022/12/31 06:03:59;;;;;;;6.20;3.57;;;;;;;2.43;100.00;100772.03;5034564;28;20521;-66
2022/12/31 06:06:24;;;;;;;8.47;4.80;;;;;;;2.39;100.00;100756.59;5034565;28;20473;-67
2022/12/31 06:08:50;;;;;;;8.80;4.80;;;;;;;2.48;100.00;100769.06;5035829;28;20299;-69
2022/12/31 06:11:16;;;;;;;4.60;3.90;;;;;;;2.48;100.00;100767.28;5017592;28;20381;-70
2022/12/31 06:13:44;;;;;;;8.23;4.40;;;;;;;2.41;100.00;100750.28;5034436;28;20268;-69
2022/12/31 06:16:10;;;;;;;8.07;5.07;;;;;;;2.42;100.00;100759.00;5034455;28;20038;-66
2022/12/31 06:18:36;;;;;;;7.17;4.40;;;;;;;2.12;100.00;100712.94;5034054;28;20395;-68
2022/12/31 06:21:02;;;;;;;6.17;4.00;;;;;;;2.31;100.00;100758.91;5034257;28;20714;-69
2022/12/31 06:23:28;;;;;;;5.53;3.30;;;;;;;2.30;100.00;100762.50;5034202;28;20036;-66
2022/12/31 06:25:54;;;;;;;7.50;4.30;;;;;;;2.28;100.00;100762.59;5016243;28;20643;-66
2022/12/31 06:28:19;;;;;;;4.70;4.20;;;;;;;2.31;100.00;100765.00;5016343;28;20029;-66
2022/12/31 06:30:45;;;;;;;6.57;4.63;;;;;;;2.36;100.00;100764.72;5033982;28;20032;-67
2022/12/31 06:33:10;;;;;;;5.70;4.37;;;;;;;2.41;100.00;100759.94;5034125;28;20025;-67
2022/12/31 06:35:36;;;;;;;11.27;4.10;;;;;;;2.42;100.00;100772.16;5033939;28;20373;-67
2022/12/31 06:38:01;;;;;;;5.83;5.13;;;;;;;2.35;100.00;100760.41;5033981;28;20029;-70
2022/12/31 06:40:27;;;;;;;7.37;3.87;;;;;;;2.36;100.00;100755.03;5035288;28;20025;-67
2022/12/31 06:42:53;;;;;;;11.27;4.93;;;;;;;2.33;100.00;100760.50;5035162;28;20037;-67
2022/12/31 06:45:19;;;;;;;9.37;4.30;;;;;;;2.26;100.00;100759.25;5035012;28;20491;-68
2022/12/31 06:47:44;;;;;;;7.57;4.20;;;;;;;2.20;100.00;100757.06;5033913;28;20107;-67
2022/12/31 06:50:10;;;;;;;13.93;6.03;;;;;;;2.11;100.00;100753.31;5033692;28;20284;-69
2022/12/31 06:52:36;;;;;;;7.30;4.90;;;;;;;2.07;100.00;100754.47;5032823;28;20669;-70
2022/12/31 06:55:02;;;;;;;7.23;5.43;;;;;;;2.09;100.00;100755.22;5022788;28;20083;-66
2022/12/31 06:57:29;;;;;;;9.37;5.87;;;;;;;2.13;100.00;100756.66;5047360;28;20025;-70
2022/12/31 06:59:55;;;;;;;10.20;5.20;;;;;;;2.09;100.00;100744.69;5044515;28;20611;-70
2022/12/31 07:02:35;;;;;;;9.83;5.57;;;;;;;2.05;100.00;100738.00;5052120;28;20115;-67
2022/12/31 07:05:05;;;;;;;7.03;5.20;;;;;;;1.80;100.00;100696.84;5015977;28;20026;-69
2022/12/31 07:08:01;;;;;;;12.27;5.77;;;;;;;2.06;100.00;100747.53;5014968;28;20280;-68
2022/12/31 07:10:38;;;;;;;7.93;4.73;;;;;;;2.08;100.00;100742.19;4996229;28;20253;-66
2022/12/31 07:13:22;;;;;;;8.97;4.83;;;;;;;2.08;100.00;100740.41;5013156;28;20281;-66
2022/12/31 07:16:07;;;;;;;6.87;4.30;;;;;;;2.15;100.00;100746.03;5013044;28;20269;-67
2022/12/31 07:18:51;;;;;;;6.57;4.47;;;;;;;2.20;100.00;100736.03;5012713;28;20315;-67
2022/12/31 07:21:30;;;;;;;8.30;4.43;;;;;;;2.20;100.00;100741.31;5012531;28;20363;-68
2022/12/31 07:23:56;;;;;;;6.30;4.50;;;;;;;2.20;100.00;100740.47;5012711;28;20257;-70
2022/12/31 07:26:32;;;;;;;7.07;5.17;;;;;;;2.29;100.00;100729.28;5012658;28;20045;-69
2022/12/31 07:29:13;;;;;;;6.90;4.73;;;;;;;2.36;100.00;100731.38;5012907;28;20036;-69
2022/12/31 07:31:55;;;;;;;7.27;4.57;;;;;;;2.34;100.00;100724.56;5012652;28;20318;-69
2022/12/31 07:34:46;;;;;;;11.37;5.37;;;;;;;2.38;100.00;100728.63;4995890;28;20347;-68
2022/12/31 07:37:22;;;;;;;8.43;4.17;;;;;;;2.38;100.00;100712.88;4984243;28;20261;-69
2022/12/31 07:40:27;;;;;;;7.60;4.83;;;;;;;2.44;100.00;100720.31;5012439;28;20261;-68
2022/12/31 07:43:30;;;;;;;9.07;5.07;;;;;;;2.45;100.00;100720.19;5012688;28;20303;-67
2022/12/31 07:46:21;;;;;;;7.20;6.27;;;;;;;2.48;100.00;100705.97;5012838;28;20260;-68
2022/12/31 07:48:47;;;;;;;11.50;5.53;;;;;;;2.50;100.00;100701.44;4998510;28;20331;-68
2022/12/31 07:51:13;;;;;;;8.63;5.03;;;;;;;2.45;100.00;100696.53;5012363;28;20272;-68
2022/12/31 07:53:38;;;;;;;8.93;4.37;;;;;;;2.33;100.00;100678.22;5012653;28;20072;-66
2022/12/31 07:56:07;;;;;;;11.03;5.40;;;;;;;2.42;100.00;100698.53;5012695;28;20535;-69
2022/12/31 07:58:38;;;;;;;6.05;4.40;;;;;;;2.49;100.00;100705.88;5011454;28;20060;-69
2022/12/31 08:01:05;;;;;;;9.83;6.20;;;;;;;2.55;100.00;100707.19;5012300;28;20172;-67
2022/12/31 08:03:52;;;;;;;7.60;4.67;;;;;;;2.60;100.00;100694.59;5012521;28;20259;-68
2022/12/31 08:06:58;;;;;;;5.67;4.07;;;;;;;2.51;100.00;100692.59;5012266;28;20332;-69
2022/12/31 08:09:47;;;;;;;10.13;4.97;;;;;;;2.52;100.00;100699.53;5012592;28;20712;-67
2022/12/31 08:12:14;;;;;;;9.97;4.13;;;;;;;2.46;100.00;100684.22;5012200;28;20256;-69
2022/12/31 08:14:48;;;;;;;6.07;4.03;;;;;;;2.51;100.00;100682.09;5012400;28;20284;-69
2022/12/31 08:17:17;;;;;;;5.83;5.10;;;;;;;2.47;100.00;100691.16;5012304;28;20767;-70
2022/12/31 08:19:42;;;;;;;6.78;4.60;;;;;;;2.47;100.00;100664.88;5011982;28;20729;-69
2022/12/31 08:22:18;;;;;;;8.27;4.67;;;;;;;2.44;100.00;100670.34;5012102;28;20130;-69
2022/12/31 08:25:26;;;;;;;8.37;3.97;;;;;;;2.46;100.00;100663.19;5012173;28;20737;-68
2022/12/31 08:28:21;;;;;;;6.17;4.03;;;;;;;2.45;100.00;100666.78;4970870;28;20303;-68
2022/12/31 08:31:14;;;;;;;6.20;4.97;;;;;;;2.47;100.00;100654.34;5012141;28;20099;-68
2022/12/31 08:34:06;;;;;;;9.07;5.47;;;;;;;2.55;100.00;100644.09;5012585;28;20312;-69
2022/12/31 08:36:44;;;;;;;16.57;8.10;;;;;;;2.55;100.00;100614.34;5003599;28;20261;-70
2022/12/31 08:39:31;;;;;;;11.30;6.40;;;;;;;2.54;100.00;100631.06;5011859;28;20265;-69
2022/12/31 08:41:59;;;;;;;9.20;4.73;;;;;;;2.55;100.00;100623.06;5012000;28;20478;-67
2022/12/31 08:44:39;;;;;;;9.03;4.83;;;;;;;2.58;100.00;100622.84;5011985;28;20253;-69
2022/12/31 08:47:16;;;;;;;6.33;3.63;;;;;;;2.52;100.00;100617.22;5011684;28;20253;-65
2022/12/31 08:49:42;;;;;;;5.83;4.43;;;;;;;2.58;100.00;100614.94;5011744;28;20399;-68
2022/12/31 08:52:15;;;;;;;13.20;6.53;;;;;;;2.53;100.00;100582.91;5011471;28;20746;-68
2022/12/31 08:54:41;;;;;;;18.20;6.43;;;;;;;2.64;100.00;100595.28;5011679;28;20026;-69
2022/12/31 08:57:33;;;;;;;6.40;4.70;;;;;;;2.67;100.00;100589.78;5012597;28;20275;-66
2022/12/31 09:00:05;;;;;;;6.90;5.03;;;;;;;2.66;100.00;100574.97;5011693;28;20022;-68
2022/12/31 09:02:31;;;;;;;10.33;6.20;;;;;;;2.68;100.00;100568.63;5010388;28;20330;-66
2022/12/31 09:05:17;;;;;;;12.00;6.37;;;;;;;2.70;100.00;100550.09;5011992;28;20265;-68
2022/12/31 09:08:03;;;;;;;7.03;4.20;;;;;;;2.69;100.00;100530.03;5011922;28;20037;-67
2022/12/31 09:10:49;;;;;;;7.40;3.70;;;;;;;2.68;100.00;100517.84;5011274;28;20261;-66
2022/12/31 09:13:38;;;;;;;7.47;4.73;;;;;;;2.60;100.00;100534.22;5011840;28;20808;-69
2022/12/31 09:16:22;;;;;;;9.10;5.37;;;;;;;2.59;100.00;100515.88;5011962;28;20737;-68
2022/12/31 09:18:47;;;;;;;8.40;4.20;;;;;;;2.59;100.00;100521.16;5012528;28;20261;-67
2022/12/31 09:21:14;;;;;;;8.37;4.17;;;;;;;2.51;100.00;100516.47;5011579;28;20295;-69
2022/12/31 09:23:40;;;;;;;5.73;4.27;;;;;;;2.47;100.00;100504.53;5011987;28;20038;-67
2022/12/31 09:26:49;;;;;;;9.33;5.53;;;;;;;2.56;100.00;100498.56;5011672;28;20300;-67
2022/12/31 09:29:30;;;;;;;6.77;3.73;;;;;;;2.62;100.00;100484.97;4976754;28;20347;-67
2022/12/31 09:32:07;;;;;;;6.03;4.17;;;;;;;2.56;100.00;100488.03;5013555;28;20753;-70
2022/12/31 09:34:36;;;;;;;4.60;3.70;;;;;;;2.45;100.00;100469.66;5015475;28;20265;-66
2022/12/31 09:37:11;;;;;;;5.03;3.20;;;;;;;2.51;100.00;100471.78;5015278;28;20811;-68
2022/12/31 09:39:41;;;;;;;5.17;4.07;;;;;;;2.51;100.00;100471.78;5030707;28;20638;-72
2022/12/31 09:42:40;;;;;;;5.37;3.53;;;;;;;2.55;100.00;100464.50;5035166;28;20292;-67
2022/12/31 09:45:09;;;;;;;9.73;3.60;;;;;;;2.59;100.00;100460.69;5034143;28;20790;-68
2022/12/31 09:47:59;;;;;;;4.05;3.58;;;;;;;2.62;100.00;100445.53;5033031;28;20310;-67
2022/12/31 09:50:24;;;;;;;6.17;2.87;;;;;;;2.60;100.00;100454.47;5032252;28;20080;-69
2022/12/31 09:53:19;;;;;;;5.83;3.83;;;;;;;2.57;100.00;100449.44;5032362;28;20264;-70
2022/12/31 09:55:51;;;;;;;4.30;3.03;;;;;;;2.54;100.00;100445.28;5019527;28;20029;-68
2022/12/31 09:58:31;;;;;;;7.47;3.47;;;;;;;2.48;100.00;100446.59;5036408;28;20813;-66
2022/12/31 10:01:18;;;;;;;7.03;3.57;;;;;;;2.45;100.00;100430.22;5015737;28;20359;-72
2022/12/31 10:04:08;;;;;;;8.77;3.30;;;;;;;2.57;100.00;100437.16;5033826;28;20292;-69
2022/12/31 10:07:07;;;;;;;4.20;3.53;;;;;;;2.57;100.00;100444.19;5017274;28;20256;-67
2022/12/31 10:09:56;;;;;;;6.10;3.63;;;;;;;2.47;100.00;100429.16;5034872;28;20276;-68
2022/12/31 10:12:43;;;;;;;5.88;3.50;;;;;;;2.50;100.00;100443.84;5035191;28;20295;-67
2022/12/31 10:15:45;;;;;;;4.70;4.17;;;;;;;2.51;100.00;100440.25;5034803;28;20527;-69
2022/12/31 10:18:39;;;;;;;7.63;4.13;;;;;;;2.48;100.00;100445.75;5034506;28;20264;-69
2022/12/31 10:21:23;;;;;;;9.17;3.47;;;;;;;2.43;100.00;100422.47;5034443;28;20260;-67
2022/12/31 10:24:11;;;;;;;7.40;4.47;;;;;;;2.44;100.00;100429.38;5034428;28;20287;-69
2022/12/31 10:26:46;;;;;;;8.63;3.07;;;;;;;2.43;100.00;100409.31;5033970;28;20314;-68
2022/12/31 10:29:30;;;;;;;7.30;4.10;;;;;;;2.43;100.00;100425.09;5033892;28;20264;-68
2022/12/31 10:32:22;;;;;;;7.67;4.23;;;;;;;2.47;100.00;100389.72;5034266;28;20595;-71
2022/12/31 10:35:26;;;;;;;8.57;5.00;;;;;;;2.50;100.00;100362.34;5026861;28;20279;-69
2022/12/31 10:38:00;;;;;;;8.63;4.77;;;;;;;2.50;100.00;100354.47;5015820;28;20298;-70
2022/12/31 10:40:51;;;;;;;19.40;8.57;;;;;;;2.45;100.00;100319.84;5033544;28;20748;-66
2022/12/31 10:43:54;;;;;;;8.73;4.93;;;;;;;2.44;100.00;100333.94;5033721;28;20280;-70
2022/12/31 10:46:53;;;;;;;13.53;4.73;;;;;;;2.38;100.00;100344.94;5033832;28;20291;-70
2022/12/31 10:49:45;;;;;;;5.87;3.90;;;;;;;2.37;100.00;100361.66;5033434;28;20731;-68
2022/12/31 10:52:34;;;;;;;5.97;3.77;;;;;;;2.38;100.00;100365.97;5033394;28;20263;-69
2022/12/31 10:55:11;;;;;;;7.80;3.33;;;;;;;2.38;100.00;100363.31;5033369;28;20272;-69
2022/12/31 10:57:38;;;;;;;4.00;3.50;;;;;;;2.43;100.00;100372.53;5033313;28;20272;-68
2022/12/31 11:00:11;;;;;;;6.27;3.83;;;;;;;2.48;100.00;100374.78;5015608;28;20039;-69
2022/12/31 11:02:39;;;;;;;13.13;6.30;;;;;;;2.51;100.00;100365.81;5033210;28;20043;-66
2022/12/31 11:05:42;;;;;;;9.18;3.97;;;;;;;2.56;100.00;100363.66;5033570;28;20267;-68
2022/12/31 11:08:26;;;;;;;15.83;4.07;;;;;;;2.54;100.00;100363.78;5033052;28;20060;-69
2022/12/31 11:11:03;;;;;;;6.20;3.30;;;;;;;2.54;100.00;100348.00;5032939;28;20278;-68
2022/12/31 11:13:49;;;;;;;14.93;4.50;;;;;;;2.51;100.00;100360.56;5032995;28;20764;-67
2022/12/31 11:16:35;;;;;;;7.00;4.27;;;;;;;2.45;100.00;100341.69;5015111;28;20310;-66
2022/12/31 11:19:19;;;;;;;5.03;3.17;;;;;;;2.49;100.00;100360.69;5032970;28;20322;-70
2022/12/31 11:22:11;;;;;;;6.40;3.80;;;;;;;2.52;100.00;100351.72;5032048;28;20379;-69
2022/12/31 11:24:53;;;;;;;12.27;5.33;;;;;;;2.38;100.00;100334.41;5032697;28;20280;-69
2022/12/31 11:27:37;;;;;;;7.17;3.83;;;;;;;2.41;100.00;100348.16;5032588;28;20245;-66
2022/12/31 11:30:18;;;;;;;7.87;3.33;;;;;;;2.44;100.00;100328.69;5032373;28;20283;-69
2022/12/31 11:33:01;;;;;;;5.50;3.43;;;;;;;2.43;100.00;100332.25;5032602;28;20260;-68
2022/12/31 11:35:38;;;;;;;8.53;4.17;;;;;;;2.41;100.00;100339.44;5033492;28;20770;-69
2022/12/31 11:38:29;;;;;;;12.47;5.63;;;;;;;2.40;100.00;100343.84;5032842;28;20275;-65
2022/12/31 11:41:21;;;;;;;6.03;4.00;;;;;;;2.42;100.00;100330.59;5023823;28;20276;-69
2022/12/31 11:44:12;;;;;;;12.23;4.90;;;;;;;2.50;100.00;100328.19;5032572;28;20271;-71
2022/12/31 11:46:46;;;;;;;11.43;5.03;;;;;;;2.42;100.00;100333.22;5032171;28;20272;-69
2022/12/31 11:49:56;;;;;;;14.83;8.17;;;;;;;2.54;100.00;100324.34;5033422;28;20727;-68
2022/12/31 11:52:43;;;;;;;11.57;5.20;;;;;;;2.57;100.00;100313.59;5017340;28;20280;-67
2022/12/31 11:55:41;;;;;;;13.77;5.87;;;;;;;2.59;100.00;100319.56;5031830;28;20261;-68
2022/12/31 11:58:14;;;;;;;13.30;6.43;;;;;;;2.48;100.00;100306.44;5020790;28;20272;-69
2022/12/31 12:00:54;;;;;;;14.13;5.40;;;;;;;2.45;100.00;100277.78;5031994;28;20049;-68